createdAt,value
2023-03-31T00:01:00.659Z,10.67
2023-03-31T00:02:13.431Z,10.64
2023-03-31T00:03:22.790Z,10.62
2023-03-31T00:04:45.669Z,10.62
2023-03-31T00:05:48.773Z,10.60
2023-03-31T00:06:54.668Z,10.60
2023-03-31T00:08:01.216Z,10.62
2023-03-31T00:09:19.018Z,10.62
2023-03-31T00:10:22.542Z,10.58
2023-03-31T00:11:25.599Z,10.62
2023-03-31T00:12:28.687Z,10.61
2023-03-31T00:13:31.781Z,10.62
2023-03-31T00:14:34.591Z,10.65
2023-03-31T00:15:37.511Z,10.63
2023-03-31T00:16:40.574Z,10.65
2023-03-31T00:17:43.555Z,10.70
2023-03-31T00:18:47.645Z,10.70
2023-03-31T00:19:50.752Z,10.68
2023-03-31T00:20:54.607Z,10.68
2023-03-31T00:22:02.018Z,10.67
2023-03-31T00:23:10.778Z,10.65
2023-03-31T00:24:15.478Z,10.65
2023-03-31T00:25:18.227Z,10.70
2023-03-31T00:26:22.758Z,10.67
2023-03-31T00:27:25.549Z,10.67
2023-03-31T00:28:28.376Z,10.70
2023-03-31T00:29:31.622Z,10.71
2023-03-31T00:30:34.848Z,10.69
2023-03-31T00:31:39.014Z,10.72
2023-03-31T00:32:42.264Z,10.71
2023-03-31T00:33:45.320Z,10.70
2023-03-31T00:34:48.071Z,10.71
2023-03-31T00:35:55.794Z,10.73
2023-03-31T00:37:02.634Z,10.70
2023-03-31T00:38:06.048Z,10.70
2023-03-31T00:39:09.936Z,10.72
2023-03-31T00:40:12.693Z,10.72
2023-03-31T00:41:16.163Z,10.72
2023-03-31T00:42:18.957Z,10.71
2023-03-31T00:43:34.264Z,10.70
2023-03-31T00:44:59.876Z,10.68
2023-03-31T00:46:15.637Z,10.67
2023-03-31T00:47:21.097Z,10.65
2023-03-31T00:48:24.307Z,10.66
2023-03-31T00:49:34.560Z,10.65
2023-03-31T00:50:53.132Z,10.62
2023-03-31T00:52:02.587Z,10.62
2023-03-31T00:53:14.530Z,10.61
2023-03-31T00:54:19.589Z,10.62
2023-03-31T00:55:28.472Z,10.66
2023-03-31T00:56:39.203Z,10.63
2023-03-31T00:57:44.657Z,10.63
2023-03-31T00:58:49.950Z,10.66
2023-03-31T00:59:58.043Z,10.64
2023-03-31T01:01:03.506Z,10.62
2023-03-31T01:02:07.653Z,10.62
2023-03-31T01:03:11.238Z,10.68
2023-03-31T01:04:16.452Z,10.66
2023-03-31T01:05:22.375Z,10.67
2023-03-31T01:06:25.887Z,10.62
2023-03-31T01:07:40.357Z,10.65
2023-03-31T01:08:43.964Z,10.64
2023-03-31T01:09:48.193Z,10.66
2023-03-31T01:10:55.030Z,10.67
2023-03-31T01:11:58.244Z,10.65
2023-03-31T01:13:01.324Z,10.67
2023-03-31T01:14:06.267Z,10.71
2023-03-31T01:15:10.124Z,10.67
2023-03-31T01:16:12.937Z,10.68
2023-03-31T01:17:22.268Z,10.67
2023-03-31T01:18:29.251Z,10.66
2023-03-31T01:19:42.741Z,10.65
2023-03-31T01:21:03.924Z,10.65
2023-03-31T01:22:27.124Z,10.64
2023-03-31T01:23:56.182Z,10.62
2023-03-31T01:25:18.721Z,10.61
2023-03-31T01:26:43.095Z,10.59
2023-03-31T01:27:54.923Z,10.59
2023-03-31T01:29:03.753Z,10.57
2023-03-31T01:30:33.714Z,10.57
2023-03-31T01:31:54.496Z,10.55
2023-03-31T01:33:27.617Z,10.54
2023-03-31T01:34:58.002Z,10.54
2023-03-31T01:36:38.216Z,10.54
2023-03-31T01:38:09.169Z,10.52
2023-03-31T01:39:36.416Z,10.52
2023-03-31T01:41:02.057Z,10.52
2023-03-31T01:42:32.941Z,10.55
2023-03-31T01:44:01.912Z,10.50
2023-03-31T01:45:30.993Z,10.50
2023-03-31T01:46:58.499Z,10.49
2023-03-31T01:48:18.273Z,10.48
2023-03-31T01:49:48.076Z,10.47
2023-03-31T01:50:52.212Z,10.46
2023-03-31T01:52:06.794Z,10.48
2023-03-31T01:53:21.498Z,10.46
2023-03-31T01:54:33.252Z,10.46
2023-03-31T01:55:41.209Z,10.46
2023-03-31T01:56:52.790Z,10.45
2023-03-31T01:58:02.778Z,10.45
2023-03-31T01:59:17.185Z,10.44
2023-03-31T02:00:30.058Z,10.43
2023-03-31T02:01:47.200Z,10.42
2023-03-31T02:03:10.838Z,10.42
2023-03-31T02:04:22.727Z,10.41
2023-03-31T02:05:45.361Z,10.41
2023-03-31T02:06:56.262Z,10.41
2023-03-31T02:08:05.914Z,10.40
2023-03-31T02:09:19.926Z,10.39
2023-03-31T02:13:39.252Z,10.41
2023-03-31T02:14:46.667Z,10.41
2023-03-31T02:15:58.022Z,10.40
2023-03-31T02:17:03.954Z,10.39
2023-03-31T02:18:11.437Z,10.35
2023-03-31T02:19:19.237Z,10.33
2023-03-31T02:20:23.408Z,10.36
2023-03-31T02:21:27.146Z,10.37
2023-03-31T02:22:34.159Z,10.38
2023-03-31T02:23:38.530Z,10.35
2023-03-31T02:24:43.092Z,10.38
2023-03-31T02:25:52.157Z,10.35
2023-03-31T02:27:11.176Z,10.33
2023-03-31T02:28:21.447Z,10.33
2023-03-31T02:29:24.464Z,10.33
2023-03-31T02:30:46.178Z,10.35
2023-03-31T02:31:55.264Z,10.32
2023-03-31T02:32:59.935Z,10.33
2023-03-31T02:34:03.023Z,10.35
2023-03-31T02:35:12.635Z,10.36
2023-03-31T02:36:16.650Z,10.33
2023-03-31T02:37:19.643Z,10.35
2023-03-31T02:38:22.776Z,10.36
2023-03-31T02:39:30.775Z,10.36
2023-03-31T02:40:33.948Z,10.34
2023-03-31T02:41:37.772Z,10.36
2023-03-31T02:42:42.340Z,10.35
2023-03-31T02:43:45.396Z,10.36
2023-03-31T02:44:48.768Z,10.35
2023-03-31T02:45:51.909Z,10.36
2023-03-31T02:46:54.893Z,10.36
2023-03-31T02:47:57.990Z,10.36
2023-03-31T02:49:03.359Z,10.36
2023-03-31T02:50:07.185Z,10.35
2023-03-31T02:51:33.553Z,10.37
2023-03-31T02:53:01.744Z,10.33
2023-03-31T02:54:19.887Z,10.31
2023-03-31T02:56:07.268Z,10.29
2023-03-31T02:58:00.958Z,10.27
2023-03-31T02:59:21.368Z,10.27
2023-03-31T03:00:36.636Z,10.26
2023-03-31T03:02:00.858Z,10.25
2023-03-31T03:03:23.002Z,10.24
2023-03-31T03:04:29.856Z,10.24
2023-03-31T03:06:08.515Z,10.26
2023-03-31T03:07:31.748Z,10.22
2023-03-31T03:08:55.795Z,10.22
2023-03-31T03:10:15.463Z,10.20
2023-03-31T03:11:33.555Z,10.18
2023-03-31T03:13:04.134Z,10.17
2023-03-31T03:14:15.863Z,10.15
2023-03-31T03:15:26.601Z,10.15
2023-03-31T03:16:35.720Z,10.13
2023-03-31T03:17:45.675Z,10.13
2023-03-31T03:19:09.136Z,10.12
2023-03-31T03:20:14.413Z,10.10
2023-03-31T03:21:17.294Z,10.14
2023-03-31T03:22:20.764Z,10.11
2023-03-31T03:23:23.662Z,10.11
2023-03-31T03:24:29.697Z,10.09
2023-03-31T03:25:34.261Z,10.10
2023-03-31T03:26:37.190Z,10.07
2023-03-31T03:27:40.895Z,10.05
2023-03-31T03:28:43.810Z,10.05
2023-03-31T03:29:47.657Z,10.03
2023-03-31T03:30:50.602Z,10.05
2023-03-31T03:31:54.270Z,10.01
2023-03-31T03:32:58.979Z,10.00
2023-03-31T03:34:01.953Z,9.98
2023-03-31T03:35:06.833Z,9.96
2023-03-31T03:36:10.510Z,9.96
2023-03-31T03:37:13.414Z,9.96
2023-03-31T03:38:16.280Z,9.94
2023-03-31T03:39:19.250Z,9.89
2023-03-31T03:40:22.222Z,9.90
2023-03-31T03:41:25.203Z,9.88
2023-03-31T03:42:28.170Z,9.83
2023-03-31T03:43:31.191Z,9.84
2023-03-31T03:44:34.043Z,9.81
2023-03-31T03:45:37.044Z,9.78
2023-03-31T03:46:39.916Z,9.75
2023-03-31T03:47:42.841Z,9.74
2023-03-31T03:48:46.396Z,9.72
2023-03-31T03:49:49.485Z,9.69
2023-03-31T03:50:54.300Z,9.67
2023-03-31T03:51:57.229Z,9.68
2023-03-31T03:53:00.410Z,9.67
2023-03-31T03:54:03.270Z,9.63
2023-03-31T03:55:06.805Z,9.61
2023-03-31T03:56:09.763Z,9.62
2023-03-31T03:57:12.709Z,9.58
2023-03-31T03:58:17.222Z,9.57
2023-03-31T03:59:20.071Z,9.58
2023-03-31T04:00:23.132Z,9.55
2023-03-31T04:01:26.133Z,9.53
2023-03-31T04:02:29.322Z,9.52
2023-03-31T04:03:32.405Z,9.50
2023-03-31T04:04:35.318Z,9.50
2023-03-31T04:05:38.362Z,9.48
2023-03-31T04:06:41.248Z,9.48
2023-03-31T04:07:44.130Z,9.44
2023-03-31T04:08:47.031Z,9.44
2023-03-31T04:09:50.028Z,9.42
2023-03-31T04:10:52.955Z,9.43
2023-03-31T04:11:55.941Z,9.38
2023-03-31T04:12:58.784Z,9.36
2023-03-31T04:14:01.774Z,9.34
2023-03-31T04:15:05.613Z,9.34
2023-03-31T04:16:08.768Z,9.35
2023-03-31T04:17:16.147Z,9.33
2023-03-31T04:18:22.981Z,9.34
2023-03-31T04:19:27.611Z,9.32
2023-03-31T04:20:30.797Z,9.30
2023-03-31T04:21:36.619Z,9.28
2023-03-31T04:22:42.475Z,9.29
2023-03-31T04:23:48.083Z,9.25
2023-03-31T04:24:52.832Z,9.24
2023-03-31T04:25:55.746Z,9.26
2023-03-31T04:27:00.157Z,9.25
2023-03-31T04:28:03.133Z,9.25
2023-03-31T04:29:07.643Z,9.26
2023-03-31T04:30:11.763Z,9.25
2023-03-31T04:31:25.670Z,9.27
2023-03-31T04:32:33.167Z,9.24
2023-03-31T04:33:39.956Z,9.25
2023-03-31T04:34:46.624Z,9.28
2023-03-31T04:35:49.857Z,9.30
2023-03-31T04:36:56.292Z,9.29
2023-03-31T04:37:59.407Z,9.35
2023-03-31T04:39:02.304Z,9.33
2023-03-31T04:40:08.776Z,9.34
2023-03-31T04:41:11.929Z,9.40
2023-03-31T04:42:15.086Z,9.41
2023-03-31T04:43:19.832Z,9.39
2023-03-31T04:44:22.905Z,9.44
2023-03-31T04:45:25.955Z,9.45
2023-03-31T04:46:28.873Z,9.47
2023-03-31T04:47:31.871Z,9.50
2023-03-31T04:48:35.807Z,9.53
2023-03-31T04:49:38.698Z,9.55
2023-03-31T04:50:41.585Z,9.56
2023-03-31T04:51:45.035Z,9.58
2023-03-31T04:52:47.894Z,9.60
2023-03-31T04:53:50.817Z,9.62
2023-03-31T04:54:54.139Z,9.63
2023-03-31T04:55:57.744Z,9.64
2023-03-31T04:57:00.832Z,9.66
2023-03-31T04:58:03.987Z,9.66
2023-03-31T04:59:08.527Z,9.68
2023-03-31T05:00:12.139Z,9.69
2023-03-31T05:01:18.309Z,9.70
2023-03-31T05:02:25.199Z,9.72
2023-03-31T05:03:28.770Z,9.74
2023-03-31T05:04:31.707Z,9.76
2023-03-31T05:05:34.621Z,9.78
2023-03-31T05:06:37.476Z,9.80
2023-03-31T05:07:40.616Z,9.82
2023-03-31T05:08:44.829Z,9.84
2023-03-31T05:09:47.733Z,9.86
2023-03-31T05:10:50.789Z,9.87
2023-03-31T05:11:53.758Z,9.89
2023-03-31T05:12:56.942Z,9.90
2023-03-31T05:13:59.965Z,9.90
2023-03-31T05:15:05.645Z,9.91
2023-03-31T05:16:14.842Z,9.91
2023-03-31T05:17:18.017Z,9.92
2023-03-31T05:18:21.050Z,9.89
2023-03-31T05:19:24.009Z,9.91
2023-03-31T05:20:26.898Z,9.91
2023-03-31T05:21:31.319Z,9.91
2023-03-31T05:22:36.083Z,9.95
2023-03-31T05:23:39.140Z,9.92
2023-03-31T05:24:41.979Z,9.92
2023-03-31T05:25:45.069Z,9.95
2023-03-31T05:26:52.806Z,9.94
2023-03-31T05:27:56.768Z,9.93
2023-03-31T05:28:59.682Z,9.97
2023-03-31T05:30:04.083Z,9.97
2023-03-31T05:31:08.771Z,9.99
2023-03-31T05:32:11.841Z,9.98
2023-03-31T05:33:14.850Z,9.99
2023-03-31T05:34:17.776Z,10.00
2023-03-31T05:35:20.657Z,10.00
2023-03-31T05:36:23.992Z,10.01
2023-03-31T05:37:27.228Z,10.05
2023-03-31T05:38:31.629Z,10.04
2023-03-31T05:39:34.606Z,10.06
2023-03-31T05:40:37.480Z,10.05
2023-03-31T05:41:41.011Z,10.07
2023-03-31T05:42:43.938Z,10.07
2023-03-31T05:43:47.496Z,10.07
2023-03-31T05:44:50.609Z,10.09
2023-03-31T05:45:53.494Z,10.10
2023-03-31T05:46:56.517Z,10.10
2023-03-31T05:47:59.963Z,10.13
2023-03-31T05:49:02.929Z,10.12
2023-03-31T05:50:09.199Z,10.17
2023-03-31T05:51:37.978Z,10.17
2023-03-31T05:53:35.230Z,10.19
2023-03-31T05:55:09.173Z,10.20
2023-03-31T05:56:16.350Z,10.24
2023-03-31T05:57:19.273Z,10.27
2023-03-31T05:58:22.168Z,10.31
2023-03-31T05:59:25.072Z,10.35
2023-03-31T06:00:27.942Z,10.39
2023-03-31T06:01:30.930Z,10.43
2023-03-31T06:02:34.008Z,10.49
2023-03-31T06:03:41.458Z,10.54
2023-03-31T06:04:44.523Z,10.55
2023-03-31T06:05:49.205Z,10.64
2023-03-31T06:06:52.163Z,10.69
2023-03-31T06:07:55.025Z,10.79
2023-03-31T06:08:58.015Z,10.87
2023-03-31T06:10:00.973Z,10.92
2023-03-31T06:11:08.778Z,10.95
2023-03-31T06:12:11.869Z,10.95
2023-03-31T06:13:14.703Z,10.98
2023-03-31T06:14:18.162Z,10.99
2023-03-31T06:15:21.005Z,11.01
2023-03-31T06:16:23.900Z,11.05
2023-03-31T06:17:26.848Z,11.03
2023-03-31T06:18:32.277Z,11.07
2023-03-31T06:19:35.377Z,11.03
2023-03-31T06:20:38.222Z,11.07
2023-03-31T06:21:41.325Z,11.06
2023-03-31T06:22:44.226Z,11.11
2023-03-31T06:23:47.381Z,11.12
2023-03-31T06:24:50.396Z,11.13
2023-03-31T06:25:54.016Z,11.15
2023-03-31T06:26:56.965Z,11.15
2023-03-31T06:27:59.810Z,11.14
2023-03-31T06:29:02.883Z,11.14
2023-03-31T06:30:06.534Z,11.13
2023-03-31T06:31:12.794Z,11.11
2023-03-31T06:32:15.865Z,11.15
2023-03-31T06:33:18.723Z,11.14
2023-03-31T06:34:22.146Z,11.15
2023-03-31T06:35:24.981Z,11.14
2023-03-31T06:36:27.912Z,11.15
2023-03-31T06:37:31.112Z,11.20
2023-03-31T06:38:36.538Z,11.24
2023-03-31T06:39:39.385Z,11.24
2023-03-31T06:40:42.628Z,11.24
2023-03-31T06:41:46.102Z,11.24
2023-03-31T06:42:54.571Z,11.21
2023-03-31T06:43:57.978Z,11.25
2023-03-31T06:45:00.820Z,11.24
2023-03-31T06:46:04.572Z,11.28
2023-03-31T06:47:07.573Z,11.25
2023-03-31T06:48:10.447Z,11.30
2023-03-31T06:49:13.484Z,11.29
2023-03-31T06:50:16.509Z,11.33
2023-03-31T06:51:19.898Z,11.32
2023-03-31T06:52:22.759Z,11.37
2023-03-31T06:53:25.862Z,11.40
2023-03-31T06:54:28.768Z,11.40
2023-03-31T06:55:33.888Z,11.41
2023-03-31T06:56:36.746Z,11.41
2023-03-31T06:57:39.566Z,11.44
2023-03-31T06:58:42.396Z,11.47
2023-03-31T06:59:45.264Z,11.47
2023-03-31T07:00:48.405Z,11.48
2023-03-31T07:01:51.374Z,11.49
2023-03-31T07:02:55.035Z,11.50
2023-03-31T07:03:57.991Z,11.50
2023-03-31T07:05:00.934Z,11.52
2023-03-31T07:06:03.827Z,11.56
2023-03-31T07:07:06.906Z,11.58
2023-03-31T07:08:09.919Z,11.65
2023-03-31T07:09:12.752Z,11.68
2023-03-31T07:10:15.631Z,11.77
2023-03-31T07:11:21.041Z,11.82
2023-03-31T07:12:24.627Z,11.86
2023-03-31T07:13:28.467Z,11.95
2023-03-31T07:14:32.450Z,12.01
2023-03-31T07:15:35.672Z,12.10
2023-03-31T07:16:38.655Z,12.16
2023-03-31T07:17:44.584Z,12.22
2023-03-31T07:18:47.469Z,12.23
2023-03-31T07:19:50.285Z,12.30
2023-03-31T07:20:53.767Z,12.34
2023-03-31T07:21:56.734Z,12.36
2023-03-31T07:23:00.470Z,12.36
2023-03-31T07:24:04.907Z,12.39
2023-03-31T07:25:09.924Z,12.40
2023-03-31T07:26:13.839Z,12.41
2023-03-31T07:27:16.825Z,12.43
2023-03-31T07:28:20.938Z,12.43
2023-03-31T07:29:23.967Z,12.43
2023-03-31T07:30:27.819Z,12.39
2023-03-31T07:31:31.372Z,12.40
2023-03-31T07:32:39.741Z,12.37
2023-03-31T07:33:42.724Z,12.39
2023-03-31T07:34:46.134Z,12.39
2023-03-31T07:36:00.233Z,12.39
2023-03-31T07:37:06.754Z,12.39
2023-03-31T07:38:11.096Z,12.41
2023-03-31T07:39:14.066Z,12.41
2023-03-31T07:40:21.446Z,12.41
2023-03-31T07:41:25.187Z,12.43
2023-03-31T07:42:28.256Z,12.43
2023-03-31T07:43:31.501Z,12.46
2023-03-31T07:44:35.869Z,12.46
2023-03-31T07:45:40.456Z,12.44
2023-03-31T07:46:43.440Z,12.43
2023-03-31T07:47:48.121Z,12.45
2023-03-31T07:48:51.586Z,12.44
2023-03-31T07:49:54.639Z,12.46
2023-03-31T07:50:58.597Z,12.47
2023-03-31T07:52:07.107Z,12.45
2023-03-31T07:53:10.243Z,12.44
2023-03-31T07:54:13.220Z,12.42
2023-03-31T07:55:16.792Z,12.44
2023-03-31T07:56:22.308Z,12.43
2023-03-31T07:57:25.849Z,12.40
2023-03-31T07:58:29.252Z,12.40
2023-03-31T07:59:32.151Z,12.38
2023-03-31T08:00:36.051Z,12.40
2023-03-31T08:01:40.140Z,12.39
2023-03-31T08:02:43.746Z,12.43
2023-03-31T08:03:49.162Z,12.40
2023-03-31T08:04:52.185Z,12.45
2023-03-31T08:05:55.298Z,12.44
2023-03-31T08:07:03.148Z,12.46
2023-03-31T08:08:07.337Z,12.51
2023-03-31T08:09:10.319Z,12.50
2023-03-31T08:10:18.523Z,12.56
2023-03-31T08:11:21.769Z,12.54
2023-03-31T08:12:24.845Z,12.59
2023-03-31T08:13:27.719Z,12.62
2023-03-31T08:14:40.487Z,12.62
2023-03-31T08:15:45.941Z,12.64
2023-03-31T08:16:48.979Z,12.68
2023-03-31T08:17:53.041Z,12.71
2023-03-31T08:18:56.026Z,12.75
2023-03-31T08:20:02.786Z,12.79
2023-03-31T08:21:12.312Z,12.81
2023-03-31T08:22:15.598Z,12.84
2023-03-31T08:23:18.674Z,12.88
2023-03-31T08:24:22.865Z,12.91
2023-03-31T08:25:25.939Z,12.93
2023-03-31T08:26:32.012Z,12.94
2023-03-31T08:27:40.445Z,12.95
2023-03-31T08:28:43.358Z,12.93
2023-03-31T08:29:46.214Z,12.98
2023-03-31T08:30:50.109Z,13.04
2023-03-31T08:31:54.641Z,13.10
2023-03-31T08:32:57.612Z,13.19
2023-03-31T08:34:03.092Z,13.26
2023-03-31T08:35:06.806Z,13.33
2023-03-31T08:36:11.141Z,13.40
2023-03-31T08:37:14.149Z,13.52
2023-03-31T08:38:17.005Z,13.61
2023-03-31T08:39:19.934Z,13.75
2023-03-31T08:40:26.077Z,13.79
2023-03-31T08:41:50.360Z,13.85
2023-03-31T08:43:02.514Z,13.95
2023-03-31T08:44:11.585Z,14.05
2023-03-31T08:45:22.664Z,14.13
2023-03-31T08:46:29.729Z,14.21
2023-03-31T08:47:36.766Z,14.23
2023-03-31T08:48:48.987Z,14.25
2023-03-31T08:49:59.401Z,14.28
2023-03-31T08:51:16.178Z,14.28
2023-03-31T08:52:36.894Z,14.26
2023-03-31T08:53:46.294Z,14.22
2023-03-31T08:54:56.733Z,14.22
2023-03-31T08:55:59.670Z,14.29
2023-03-31T08:57:06.338Z,14.37
2023-03-31T08:58:21.090Z,14.47
2023-03-31T08:59:29.232Z,14.56
2023-03-31T09:00:45.488Z,14.65
2023-03-31T09:02:00.926Z,14.71
2023-03-31T09:03:16.503Z,14.73
2023-03-31T09:04:37.190Z,14.77
2023-03-31T09:05:59.981Z,14.83
2023-03-31T09:07:29.190Z,14.85
2023-03-31T09:08:33.757Z,14.85
2023-03-31T09:09:48.602Z,14.82
2023-03-31T09:10:58.622Z,14.78
2023-03-31T09:12:10.306Z,14.74
2023-03-31T09:13:15.800Z,14.71
2023-03-31T09:14:28.043Z,14.70
2023-03-31T09:16:05.469Z,14.71
2023-03-31T09:17:26.548Z,14.76
2023-03-31T09:18:35.481Z,14.83
2023-03-31T09:19:49.728Z,14.88
2023-03-31T09:20:56.825Z,14.88
2023-03-31T09:22:01.819Z,14.89
2023-03-31T09:23:22.043Z,14.89
2023-03-31T09:24:33.261Z,14.89
2023-03-31T09:25:41.589Z,14.88
2023-03-31T09:26:53.315Z,14.87
2023-03-31T09:27:58.218Z,14.86
2023-03-31T09:29:07.291Z,14.87
2023-03-31T09:30:20.820Z,14.87
2023-03-31T09:31:24.900Z,14.90
2023-03-31T09:32:32.288Z,14.92
2023-03-31T09:33:40.834Z,14.97
2023-03-31T09:34:45.896Z,15.04
2023-03-31T09:35:51.447Z,15.10
2023-03-31T09:36:55.281Z,15.15
2023-03-31T09:37:58.512Z,15.19
2023-03-31T09:39:01.446Z,15.27
2023-03-31T09:40:08.042Z,15.37
2023-03-31T09:41:13.003Z,15.43
2023-03-31T09:42:16.250Z,15.46
2023-03-31T09:43:24.624Z,15.50
2023-03-31T09:44:37.693Z,15.55
2023-03-31T09:45:40.945Z,15.58
2023-03-31T09:46:43.941Z,15.62
2023-03-31T09:47:59.287Z,15.63
2023-03-31T09:49:06.995Z,15.63
2023-03-31T09:50:11.936Z,15.61
2023-03-31T09:51:20.915Z,15.58
2023-03-31T09:52:29.651Z,15.61
2023-03-31T09:53:40.509Z,15.58
2023-03-31T09:54:56.792Z,15.56
2023-03-31T09:56:06.292Z,15.55
2023-03-31T09:57:35.228Z,15.55
2023-03-31T09:58:46.766Z,15.58
2023-03-31T09:59:51.700Z,15.63
2023-03-31T10:00:57.635Z,15.67
2023-03-31T10:02:04.104Z,15.70
2023-03-31T10:03:09.871Z,15.72
2023-03-31T10:04:25.120Z,15.78
2023-03-31T10:05:36.659Z,15.88
2023-03-31T10:06:42.511Z,15.97
2023-03-31T10:07:46.324Z,16.06
2023-03-31T10:08:56.510Z,16.10
2023-03-31T10:09:59.715Z,16.13
2023-03-31T10:11:07.022Z,16.13
2023-03-31T10:12:17.353Z,16.15
2023-03-31T10:13:25.023Z,16.17
2023-03-31T10:14:41.831Z,16.13
2023-03-31T10:15:45.041Z,16.06
2023-03-31T10:16:55.052Z,15.99
2023-03-31T10:17:58.613Z,15.94
2023-03-31T10:19:21.239Z,15.92
2023-03-31T10:20:30.629Z,15.94
2023-03-31T10:21:37.514Z,16.02
2023-03-31T10:22:44.624Z,16.09
2023-03-31T10:23:49.131Z,16.10
2023-03-31T10:24:53.323Z,16.08
2023-03-31T10:25:56.792Z,16.06
2023-03-31T10:26:59.700Z,16.04
2023-03-31T10:28:03.415Z,16.01
2023-03-31T10:29:13.044Z,15.99
2023-03-31T10:30:24.697Z,15.97
2023-03-31T10:31:36.072Z,15.97
2023-03-31T10:32:43.347Z,15.95
2023-03-31T10:33:51.498Z,16.04
2023-03-31T10:34:56.354Z,16.03
2023-03-31T10:36:01.508Z,16.09
2023-03-31T10:37:04.913Z,16.13
2023-03-31T10:38:14.445Z,16.14
2023-03-31T10:39:17.854Z,16.15
2023-03-31T10:40:32.132Z,16.15
2023-03-31T10:41:35.419Z,16.25
2023-03-31T10:42:38.568Z,16.23
2023-03-31T10:43:50.391Z,16.23
2023-03-31T10:45:33.639Z,16.26
2023-03-31T10:46:52.915Z,16.32
2023-03-31T10:47:59.680Z,16.35
2023-03-31T10:49:24.175Z,16.44
2023-03-31T10:50:35.661Z,16.55
2023-03-31T10:51:49.857Z,16.61
2023-03-31T10:52:53.092Z,16.64
2023-03-31T10:54:01.264Z,16.76
2023-03-31T10:55:04.406Z,16.79
2023-03-31T10:56:19.927Z,16.86
2023-03-31T10:57:41.167Z,16.94
2023-03-31T10:59:21.894Z,17.02
2023-03-31T11:00:32.944Z,17.02
2023-03-31T11:01:36.718Z,17.00
2023-03-31T11:03:33.158Z,16.96
2023-03-31T11:05:13.569Z,16.88
2023-03-31T11:06:57.053Z,16.84
2023-03-31T11:08:22.198Z,16.89
2023-03-31T11:09:40.103Z,16.97
2023-03-31T11:10:49.120Z,17.02
2023-03-31T11:12:13.435Z,17.09
2023-03-31T11:13:33.976Z,17.20
2023-03-31T11:14:42.491Z,17.30
2023-03-31T11:15:57.513Z,17.36
2023-03-31T11:17:14.514Z,17.39
2023-03-31T11:18:36.116Z,17.39
2023-03-31T11:20:25.642Z,17.36
2023-03-31T11:21:43.708Z,17.27
2023-03-31T11:23:02.457Z,17.26
2023-03-31T11:24:07.990Z,17.30
2023-03-31T11:25:26.060Z,17.32
2023-03-31T11:26:40.768Z,17.33
2023-03-31T11:27:55.486Z,17.36
2023-03-31T11:29:04.022Z,17.41
2023-03-31T11:30:33.126Z,17.42
2023-03-31T11:31:48.887Z,17.40
2023-03-31T11:33:24.422Z,17.36
2023-03-31T11:34:45.991Z,17.33
2023-03-31T11:36:05.410Z,17.32
2023-03-31T11:37:41.617Z,17.24
2023-03-31T11:38:50.802Z,17.16
2023-03-31T11:40:19.663Z,17.08
2023-03-31T11:41:45.583Z,16.95
2023-03-31T11:42:51.031Z,16.88
2023-03-31T11:44:00.134Z,16.88
2023-03-31T11:45:17.961Z,16.86
2023-03-31T11:46:25.711Z,16.84
2023-03-31T11:47:33.999Z,16.87
2023-03-31T11:48:59.902Z,16.92
2023-03-31T11:50:28.966Z,16.92
2023-03-31T11:51:50.900Z,16.92
2023-03-31T11:53:00.534Z,16.92
2023-03-31T11:54:06.571Z,16.92
2023-03-31T11:55:18.257Z,16.92
2023-03-31T11:56:22.809Z,16.93
2023-03-31T11:57:33.584Z,16.93
2023-03-31T11:58:47.639Z,16.97
2023-03-31T11:59:58.960Z,17.00
2023-03-31T12:01:21.121Z,17.02
2023-03-31T12:02:30.010Z,17.07
2023-03-31T12:03:53.567Z,17.13
2023-03-31T12:04:58.466Z,17.21
2023-03-31T12:06:17.423Z,17.34
2023-03-31T12:07:24.013Z,17.54
2023-03-31T12:08:42.801Z,17.72
2023-03-31T12:10:18.324Z,17.96
2023-03-31T12:11:29.530Z,18.38
2023-03-31T12:12:38.878Z,18.63
2023-03-31T12:14:03.087Z,18.76
2023-03-31T12:15:09.139Z,18.87
2023-03-31T12:16:23.208Z,18.96
2023-03-31T12:17:27.771Z,19.05
2023-03-31T12:18:36.993Z,19.15
2023-03-31T12:20:00.575Z,19.19
2023-03-31T12:21:05.601Z,19.41
2023-03-31T12:22:40.018Z,19.61
2023-03-31T12:23:46.583Z,19.85
2023-03-31T12:24:49.568Z,19.98
2023-03-31T12:26:23.908Z,20.03
2023-03-31T12:27:43.988Z,20.02
2023-03-31T12:28:49.236Z,19.96
2023-03-31T12:29:59.768Z,19.96
2023-03-31T12:31:05.611Z,19.94
2023-03-31T12:32:17.810Z,19.89
2023-03-31T12:33:27.785Z,19.76
2023-03-31T12:34:33.061Z,19.60
2023-03-31T12:35:48.837Z,19.46
2023-03-31T12:37:23.126Z,19.28
2023-03-31T12:38:46.977Z,19.03
2023-03-31T12:40:11.772Z,18.87
2023-03-31T12:41:24.516Z,18.81
2023-03-31T12:42:38.048Z,18.85
2023-03-31T12:44:21.525Z,18.93
2023-03-31T12:45:32.043Z,18.99
2023-03-31T12:46:50.132Z,18.98
2023-03-31T12:48:11.735Z,18.95
2023-03-31T12:49:33.175Z,18.85
2023-03-31T12:50:53.964Z,18.69
2023-03-31T12:51:56.738Z,18.54
2023-03-31T12:53:50.598Z,18.43
2023-03-31T12:55:03.251Z,18.26
2023-03-31T12:56:06.813Z,18.16
2023-03-31T12:57:09.933Z,18.11
2023-03-31T12:58:25.185Z,18.01
2023-03-31T12:59:38.960Z,17.91
2023-03-31T13:01:11.803Z,17.81
2023-03-31T13:02:15.447Z,17.70
2023-03-31T13:03:40.948Z,17.56
2023-03-31T13:04:44.557Z,17.44
2023-03-31T13:05:48.336Z,17.34
2023-03-31T13:06:57.239Z,17.28
2023-03-31T13:08:00.279Z,17.22
2023-03-31T13:09:15.029Z,17.13
2023-03-31T13:10:17.982Z,17.03
2023-03-31T13:11:38.063Z,16.91
2023-03-31T13:12:41.198Z,16.76
2023-03-31T13:14:00.853Z,16.63
2023-03-31T13:15:05.644Z,16.45
2023-03-31T13:16:09.056Z,16.30
2023-03-31T13:17:30.889Z,16.16
2023-03-31T13:18:34.401Z,16.10
2023-03-31T13:19:39.951Z,16.03
2023-03-31T13:20:43.155Z,15.97
2023-03-31T13:21:56.707Z,15.92
2023-03-31T13:23:03.435Z,15.87
2023-03-31T13:24:07.376Z,15.89
2023-03-31T13:25:40.085Z,15.82
2023-03-31T13:26:47.528Z,15.79
2023-03-31T13:27:50.935Z,15.78
2023-03-31T13:29:20.186Z,15.76
2023-03-31T13:30:44.201Z,15.74
2023-03-31T13:32:02.448Z,15.73
2023-03-31T13:33:10.271Z,15.73
2023-03-31T13:34:13.388Z,15.75
2023-03-31T13:35:28.139Z,15.77
2023-03-31T13:36:33.872Z,15.80
2023-03-31T13:37:58.207Z,15.82
2023-03-31T13:39:16.781Z,15.84
2023-03-31T13:40:19.803Z,15.88
2023-03-31T13:41:43.610Z,15.90
2023-03-31T13:43:29.175Z,15.95
2023-03-31T13:45:13.502Z,15.97
2023-03-31T13:46:42.174Z,15.99
2023-03-31T13:48:15.223Z,15.99
2023-03-31T13:49:41.787Z,15.98
2023-03-31T13:51:26.608Z,15.97
2023-03-31T13:53:14.054Z,15.97
2023-03-31T13:54:35.498Z,15.97
2023-03-31T13:55:59.250Z,15.96
2023-03-31T13:57:20.795Z,15.94
2023-03-31T13:58:38.794Z,15.94
2023-03-31T13:59:47.394Z,15.97
2023-03-31T14:01:20.172Z,16.06
2023-03-31T14:02:44.936Z,16.09
2023-03-31T14:04:12.518Z,16.16
2023-03-31T14:05:24.746Z,16.25
2023-03-31T14:06:35.858Z,16.28
2023-03-31T14:07:46.112Z,16.34
2023-03-31T14:08:57.436Z,16.41
2023-03-31T14:10:00.674Z,16.43
2023-03-31T14:11:24.008Z,16.41
2023-03-31T14:12:39.430Z,16.40
2023-03-31T14:13:42.998Z,16.39
2023-03-31T14:14:53.384Z,16.37
2023-03-31T14:15:58.723Z,16.36
2023-03-31T14:17:03.542Z,16.31
2023-03-31T14:18:07.624Z,16.27
2023-03-31T14:19:37.693Z,16.22
2023-03-31T14:20:52.440Z,16.14
2023-03-31T14:22:19.816Z,16.08
2023-03-31T14:23:38.525Z,16.03
2023-03-31T14:25:03.313Z,15.98
2023-03-31T14:26:30.615Z,15.97
2023-03-31T14:27:39.270Z,15.88
2023-03-31T14:29:13.785Z,15.84
2023-03-31T14:30:30.334Z,15.78
2023-03-31T14:32:03.336Z,15.74
2023-03-31T14:33:21.982Z,15.70
2023-03-31T14:34:30.929Z,15.67
2023-03-31T14:35:54.364Z,15.64
2023-03-31T14:37:08.399Z,15.63
2023-03-31T14:38:18.179Z,15.63
2023-03-31T14:39:22.481Z,15.64
2023-03-31T14:40:25.905Z,15.66
2023-03-31T14:41:32.347Z,15.65
2023-03-31T14:42:43.045Z,15.70
2023-03-31T14:43:51.268Z,15.67
2023-03-31T14:45:01.883Z,15.68
2023-03-31T14:46:07.208Z,15.69
2023-03-31T14:47:24.527Z,15.70
2023-03-31T14:48:30.153Z,15.67
2023-03-31T14:49:38.992Z,15.66
2023-03-31T14:50:46.890Z,15.65
2023-03-31T14:51:53.367Z,15.63
2023-03-31T14:52:56.551Z,15.61
2023-03-31T14:54:01.662Z,15.58
2023-03-31T14:55:05.309Z,15.55
2023-03-31T14:56:12.466Z,15.51
2023-03-31T14:57:21.595Z,15.48
2023-03-31T14:58:29.164Z,15.46
2023-03-31T14:59:35.941Z,15.43
2023-03-31T15:00:40.954Z,15.41
2023-03-31T15:01:48.505Z,15.37
2023-03-31T15:02:52.090Z,15.33
2023-03-31T15:03:55.861Z,15.30
2023-03-31T15:04:59.243Z,15.27
2023-03-31T15:06:04.693Z,15.26